createdAt,value
2018-04-21T00:00:27.780Z,14.53
2018-04-21T00:01:27.731Z,14.53
2018-04-21T00:02:27.660Z,14.44
2018-04-21T00:03:27.605Z,14.41
2018-04-21T00:04:27.556Z,14.34
2018-04-21T00:05:27.475Z,14.31
2018-04-21T00:06:27.415Z,14.33
2018-04-21T00:07:27.367Z,14.27
2018-04-21T00:08:27.300Z,14.22
2018-04-21T00:09:27.231Z,14.26
2018-04-21T00:10:27.185Z,14.19
2018-04-21T00:11:27.109Z,14.23
2018-04-21T00:12:27.050Z,14.18
2018-04-21T00:13:26.988Z,14.19
2018-04-21T00:14:26.927Z,14.05
2018-04-21T00:15:26.865Z,14.11
2018-04-21T00:16:26.801Z,14.03
2018-04-21T00:17:26.740Z,13.96
2018-04-21T00:18:26.686Z,13.98
2018-04-21T00:19:26.617Z,13.97
2018-04-21T00:20:26.567Z,13.85
2018-04-21T00:21:26.497Z,13.91
2018-04-21T00:22:26.442Z,13.94
2018-04-21T00:23:26.374Z,13.91
2018-04-21T00:24:26.311Z,14.00
2018-04-21T00:25:26.252Z,13.97
2018-04-21T00:26:26.190Z,13.90
2018-04-21T00:27:26.129Z,14.03
2018-04-21T00:28:26.065Z,14.04
2018-04-21T00:29:26.005Z,14.01
2018-04-21T00:30:25.943Z,14.08
2018-04-21T00:31:25.880Z,14.05
2018-04-21T00:32:25.824Z,14.03
2018-04-21T00:33:25.759Z,14.09
2018-04-21T00:34:25.695Z,14.03
2018-04-21T00:35:25.634Z,14.05
2018-04-21T00:36:25.573Z,14.11
2018-04-21T00:37:25.513Z,14.09
2018-04-21T00:38:25.446Z,14.09
2018-04-21T00:39:25.389Z,14.00
2018-04-21T00:40:25.347Z,13.97
2018-04-21T00:41:25.266Z,13.97
2018-04-21T00:42:25.203Z,13.86
2018-04-21T00:43:25.141Z,13.86
2018-04-21T00:44:25.081Z,13.85
2018-04-21T00:45:25.020Z,13.82
2018-04-21T00:46:24.956Z,13.78
2018-04-21T00:47:24.898Z,13.79
2018-04-21T00:48:24.836Z,13.73
2018-04-21T00:49:24.776Z,13.73
2018-04-21T00:50:24.712Z,13.76
2018-04-21T00:51:24.649Z,13.68
2018-04-21T00:52:24.588Z,13.68
2018-04-21T00:53:24.525Z,13.76
2018-04-21T00:54:24.466Z,13.73
2018-04-21T00:55:24.401Z,13.68
2018-04-21T00:56:24.340Z,13.68
2018-04-21T00:57:24.284Z,13.67
2018-04-21T00:58:24.216Z,13.72
2018-04-21T00:59:24.156Z,13.60
2018-04-21T01:00:24.096Z,13.58
2018-04-21T01:01:24.032Z,13.58
2018-04-21T01:02:23.971Z,13.60
2018-04-21T01:03:23.909Z,13.65
2018-04-21T01:04:23.847Z,13.65
2018-04-21T01:05:23.784Z,13.67
2018-04-21T01:06:23.725Z,13.58
2018-04-21T01:07:23.662Z,13.64
2018-04-21T01:08:23.600Z,13.67
2018-04-21T01:09:23.539Z,13.72
2018-04-21T01:10:23.478Z,13.71
2018-04-21T01:11:23.416Z,13.67
2018-04-21T01:12:23.353Z,13.71
2018-04-21T01:13:23.291Z,13.67
2018-04-21T01:14:23.228Z,13.65
2018-04-21T01:15:23.169Z,13.71
2018-04-21T01:16:23.105Z,13.67
2018-04-21T01:17:23.044Z,13.67
2018-04-21T01:18:22.982Z,13.64
2018-04-21T01:19:22.921Z,13.61
2018-04-21T01:20:22.856Z,13.61
2018-04-21T01:21:22.796Z,13.60
2018-04-21T01:22:22.737Z,13.58
2018-04-21T01:23:22.672Z,13.51
2018-04-21T01:24:22.611Z,13.63
2018-04-21T01:25:22.549Z,13.55
2018-04-21T01:26:22.487Z,13.40
2018-04-21T01:27:22.431Z,13.43
2018-04-21T01:28:22.365Z,13.32
2018-04-21T01:29:22.311Z,13.29
2018-04-21T01:30:22.241Z,13.24
2018-04-21T01:31:22.178Z,13.26
2018-04-21T01:32:22.117Z,13.32
2018-04-21T01:33:22.056Z,13.36
2018-04-21T01:34:21.993Z,13.20
2018-04-21T01:35:21.932Z,13.23
2018-04-21T01:36:21.871Z,13.14
2018-04-21T01:37:21.805Z,12.98
2018-04-21T01:38:21.746Z,13.01
2018-04-21T01:39:21.683Z,12.93
2018-04-21T01:40:21.622Z,12.96
2018-04-21T01:41:21.564Z,12.95
2018-04-21T01:42:21.496Z,13.04
2018-04-21T01:43:21.435Z,13.04
2018-04-21T01:44:21.374Z,13.01
2018-04-21T01:45:21.309Z,13.13
2018-04-21T01:46:21.248Z,13.02
2018-04-21T01:47:21.188Z,13.02
2018-04-21T01:48:21.125Z,13.09
2018-04-21T01:49:21.062Z,13.05
2018-04-21T01:50:21.000Z,13.11
2018-04-21T01:51:20.942Z,12.98
2018-04-21T01:52:20.880Z,12.98
2018-04-21T01:53:20.835Z,12.98
2018-04-21T01:54:20.797Z,12.91
2018-04-21T01:55:20.738Z,12.93
2018-04-21T01:56:20.630Z,12.79
2018-04-21T01:57:20.565Z,12.79
2018-04-21T01:58:20.506Z,12.81
2018-04-21T01:59:20.442Z,12.80
2018-04-21T02:00:20.380Z,12.72
2018-04-21T02:01:20.333Z,12.79
2018-04-21T02:02:20.254Z,12.71
2018-04-21T02:03:20.193Z,12.72
2018-04-21T02:04:20.133Z,12.79
2018-04-21T02:05:20.067Z,12.76
2018-04-21T02:06:20.007Z,12.71
2018-04-21T02:07:19.946Z,12.68
2018-04-21T02:08:19.882Z,12.68
2018-04-21T02:09:19.820Z,12.65
2018-04-21T02:10:19.757Z,12.76
2018-04-21T02:11:19.695Z,12.65
2018-04-21T02:12:19.633Z,12.66
2018-04-21T02:13:19.571Z,12.77
2018-04-21T02:14:19.509Z,12.80
2018-04-21T02:15:19.450Z,12.73
2018-04-21T02:16:19.388Z,12.72
2018-04-21T02:17:19.321Z,12.72
2018-04-21T02:18:19.262Z,12.81
2018-04-21T02:19:19.201Z,12.73
2018-04-21T02:20:19.135Z,12.73
2018-04-21T02:21:19.072Z,12.72
2018-04-21T02:22:19.011Z,12.66
2018-04-21T02:23:18.950Z,12.63
2018-04-21T02:24:18.886Z,12.69
2018-04-21T02:25:18.827Z,12.71
2018-04-21T02:26:18.767Z,12.77
2018-04-21T02:27:18.696Z,12.69
2018-04-21T02:28:18.639Z,12.66
2018-04-21T02:29:18.576Z,12.62
2018-04-21T02:30:18.512Z,12.79
2018-04-21T02:31:18.450Z,12.69
2018-04-21T02:32:18.389Z,12.76
2018-04-21T02:33:18.327Z,12.77
2018-04-21T02:34:18.263Z,12.62
2018-04-21T02:35:18.202Z,12.71
2018-04-21T02:36:18.144Z,12.63
2018-04-21T02:37:18.074Z,12.65
2018-04-21T02:38:18.016Z,12.61
2018-04-21T02:39:17.952Z,12.55
2018-04-21T02:40:17.888Z,12.66
2018-04-21T02:41:17.828Z,12.66
2018-04-21T02:42:17.765Z,12.59
2018-04-21T02:43:17.703Z,12.59
2018-04-21T02:44:17.643Z,12.61
2018-04-21T02:45:17.577Z,12.55
2018-04-21T02:46:17.518Z,12.59
2018-04-21T02:47:17.454Z,12.53
2018-04-21T02:48:17.406Z,12.50
2018-04-21T02:49:17.329Z,12.48
2018-04-21T02:50:17.269Z,12.43
2018-04-21T02:51:17.204Z,12.44
2018-04-21T02:52:17.142Z,12.47
2018-04-21T02:53:17.077Z,12.48
2018-04-21T02:54:17.017Z,12.48
2018-04-21T02:55:16.954Z,12.41
2018-04-21T02:56:16.891Z,12.46
2018-04-21T02:57:16.827Z,12.46
2018-04-21T02:58:16.766Z,12.46
2018-04-21T02:59:16.703Z,12.43
2018-04-21T03:00:16.654Z,12.46
2018-04-21T03:01:16.578Z,12.51
2018-04-21T03:02:16.516Z,12.54
2018-04-21T03:03:16.453Z,12.55
2018-04-21T03:04:16.391Z,12.55
2018-04-21T03:05:16.331Z,12.59
2018-04-21T03:06:16.270Z,12.61
2018-04-21T03:07:16.207Z,12.55
2018-04-21T03:08:16.142Z,12.62
2018-04-21T03:09:16.075Z,12.68
2018-04-21T03:10:16.016Z,12.61
2018-04-21T03:11:15.957Z,12.71
2018-04-21T03:12:15.896Z,12.58
2018-04-21T03:13:15.827Z,12.68
2018-04-21T03:14:15.766Z,12.54
2018-04-21T03:15:15.706Z,12.62
2018-04-21T03:16:15.646Z,12.63
2018-04-21T03:17:15.581Z,12.69
2018-04-21T03:18:15.516Z,12.73
2018-04-21T03:19:15.457Z,12.76
2018-04-21T03:20:15.393Z,12.69
2018-04-21T03:21:15.333Z,12.83
2018-04-21T03:22:15.271Z,12.77
2018-04-21T03:23:15.204Z,12.77
2018-04-21T03:24:15.142Z,12.55
2018-04-21T03:25:15.079Z,12.59
2018-04-21T03:26:15.017Z,12.53
2018-04-21T03:27:14.955Z,12.61
2018-04-21T03:28:14.894Z,12.66
2018-04-21T03:29:14.830Z,12.54
2018-04-21T03:30:14.770Z,12.54
2018-04-21T03:31:14.706Z,12.51
2018-04-21T03:32:14.642Z,12.48
2018-04-21T03:33:14.579Z,12.43
2018-04-21T03:34:14.517Z,12.51
2018-04-21T03:35:14.455Z,12.59
2018-04-21T03:36:14.392Z,12.50
2018-04-21T03:37:14.330Z,12.48
2018-04-21T03:38:14.271Z,12.46
2018-04-21T03:39:14.205Z,12.46
2018-04-21T03:40:14.141Z,12.46
2018-04-21T03:41:14.079Z,12.40
2018-04-21T03:42:14.020Z,12.40
2018-04-21T03:43:13.956Z,12.38
2018-04-21T03:44:13.893Z,12.43
2018-04-21T03:45:13.829Z,12.36
2018-04-21T03:46:13.769Z,12.35
2018-04-21T03:47:13.707Z,12.38
2018-04-21T03:48:13.644Z,12.35
2018-04-21T03:49:13.578Z,12.36
2018-04-21T03:50:13.516Z,12.36
2018-04-21T03:51:13.450Z,12.30
2018-04-21T03:52:13.392Z,12.36
2018-04-21T03:53:13.336Z,12.25
2018-04-21T03:54:13.267Z,12.25
2018-04-21T03:55:13.205Z,12.23
2018-04-21T03:56:13.143Z,12.21
2018-04-21T03:57:13.078Z,12.26
2018-04-21T03:58:13.017Z,12.11
2018-04-21T03:59:12.954Z,12.23
2018-04-21T04:00:12.895Z,12.21
2018-04-21T04:01:12.860Z,12.25
2018-04-21T04:02:12.762Z,12.25
2018-04-21T04:03:12.724Z,12.25
2018-04-21T04:04:12.641Z,12.33
2018-04-21T04:05:12.580Z,12.28
2018-04-21T04:06:12.518Z,12.36
2018-04-21T04:07:12.454Z,12.33
2018-04-21T04:08:12.396Z,12.22
2018-04-21T04:09:12.328Z,12.23
2018-04-21T04:10:12.262Z,12.26
2018-04-21T04:11:12.202Z,12.23
2018-04-21T04:12:12.139Z,12.25
2018-04-21T04:13:12.085Z,12.22
2018-04-21T04:14:12.015Z,12.28
2018-04-21T04:15:11.958Z,12.11
2018-04-21T04:16:11.891Z,12.25
2018-04-21T04:17:11.826Z,12.28
2018-04-21T04:18:11.765Z,12.22
2018-04-21T04:19:11.706Z,12.22
2018-04-21T04:20:11.639Z,12.21
2018-04-21T04:21:11.577Z,12.25
2018-04-21T04:22:11.514Z,12.23
2018-04-21T04:23:11.456Z,12.22
2018-04-21T04:24:11.388Z,12.35
2018-04-21T04:25:11.341Z,12.30
2018-04-21T04:26:11.264Z,12.36
2018-04-21T04:27:11.200Z,12.41
2018-04-21T04:28:11.145Z,12.35
2018-04-21T04:29:11.080Z,12.41
2018-04-21T04:30:11.018Z,12.44
2018-04-21T04:31:10.951Z,12.44
2018-04-21T04:32:10.889Z,12.46
2018-04-21T04:33:10.825Z,12.46
2018-04-21T04:34:10.763Z,12.50
2018-04-21T04:35:10.699Z,12.55
2018-04-21T04:36:10.642Z,12.54
2018-04-21T04:37:10.574Z,12.55
2018-04-21T04:38:10.513Z,12.61
2018-04-21T04:39:10.450Z,12.61
2018-04-21T04:40:10.388Z,12.58
2018-04-21T04:41:10.325Z,12.69
2018-04-21T04:42:10.261Z,12.68
2018-04-21T04:43:10.200Z,12.58
2018-04-21T04:44:10.135Z,12.59
2018-04-21T04:45:10.076Z,12.76
2018-04-21T04:46:10.018Z,12.69
2018-04-21T04:47:09.950Z,12.69
2018-04-21T04:48:09.887Z,12.68
2018-04-21T04:49:09.823Z,12.72
2018-04-21T04:50:09.762Z,12.68
2018-04-21T04:51:09.697Z,12.73
2018-04-21T04:52:09.638Z,12.73
2018-04-21T04:53:09.573Z,12.69
2018-04-21T04:54:09.517Z,12.71
2018-04-21T04:55:09.450Z,12.68
2018-04-21T04:56:09.384Z,12.73
2018-04-21T04:57:09.321Z,12.76
2018-04-21T04:58:09.261Z,12.79
2018-04-21T04:59:09.201Z,12.68
2018-04-21T05:00:09.141Z,12.80
2018-04-21T05:01:09.073Z,12.79
2018-04-21T05:02:09.011Z,12.81
2018-04-21T05:03:08.949Z,12.72
2018-04-21T05:04:08.891Z,12.84
2018-04-21T05:05:08.823Z,12.84
2018-04-21T05:06:08.761Z,12.93
2018-04-21T05:07:08.702Z,12.87
2018-04-21T05:08:08.653Z,12.90
2018-04-21T05:09:08.573Z,12.95
2018-04-21T05:10:08.513Z,12.91
2018-04-21T05:11:08.448Z,12.99
2018-04-21T05:12:08.386Z,13.02
2018-04-21T05:13:08.324Z,12.99
2018-04-21T05:14:08.262Z,13.05
2018-04-21T05:15:08.200Z,13.05
2018-04-21T05:16:08.140Z,13.09
2018-04-21T05:17:08.074Z,13.11
2018-04-21T05:18:08.013Z,13.09
2018-04-21T05:19:07.951Z,13.09
2018-04-21T05:20:07.889Z,13.08
2018-04-21T05:21:07.826Z,13.14
2018-04-21T05:22:07.762Z,13.11
2018-04-21T05:23:07.702Z,13.19
2018-04-21T05:24:07.640Z,13.24
2018-04-21T05:25:07.577Z,13.24
2018-04-21T05:26:07.515Z,13.30
2018-04-21T05:27:07.456Z,13.17
2018-04-21T05:28:07.388Z,13.24
2018-04-21T05:29:07.330Z,13.24
2018-04-21T05:30:07.266Z,13.24
2018-04-21T05:31:07.203Z,13.36
2018-04-21T05:32:07.140Z,13.43
2018-04-21T05:33:07.078Z,13.40
2018-04-21T05:34:07.019Z,13.49
2018-04-21T05:35:06.954Z,13.49
2018-04-21T05:36:06.893Z,13.63
2018-04-21T05:37:06.830Z,13.60
2018-04-21T05:38:06.765Z,13.67
2018-04-21T05:39:06.704Z,13.67
2018-04-21T05:40:06.645Z,13.68
2018-04-21T05:41:06.583Z,13.76
2018-04-21T05:42:06.517Z,13.78
2018-04-21T05:43:06.459Z,13.90
2018-04-21T05:44:06.395Z,13.86
2018-04-21T05:45:06.342Z,13.97
2018-04-21T05:46:06.273Z,14.01
2018-04-21T05:47:06.210Z,13.97
2018-04-21T05:48:06.146Z,14.08
2018-04-21T05:49:06.085Z,14.04
2018-04-21T05:50:06.027Z,14.09
2018-04-21T05:51:05.961Z,14.08
2018-04-21T05:52:05.898Z,14.11
2018-04-21T05:53:05.841Z,14.16
2018-04-21T05:54:05.776Z,14.18
2018-04-21T05:55:05.713Z,14.23
2018-04-21T05:56:05.652Z,14.28
2018-04-21T05:57:05.591Z,14.33
2018-04-21T05:58:05.529Z,14.27
2018-04-21T05:59:05.466Z,14.31
2018-04-21T06:00:05.420Z,14.38
2018-04-21T06:01:05.347Z,14.37
2018-04-21T06:02:05.281Z,14.53
2018-04-21T06:03:05.225Z,14.56
2018-04-21T06:04:05.158Z,14.52
2018-04-21T06:05:05.096Z,14.58
2018-04-21T06:06:05.034Z,14.63
2018-04-21T06:07:04.973Z,14.66
2018-04-21T06:08:04.914Z,14.70
2018-04-21T06:09:04.856Z,14.69
2018-04-21T06:10:04.787Z,14.79
2018-04-21T06:11:04.727Z,14.97
2018-04-21T06:12:04.665Z,14.93
2018-04-21T06:13:04.602Z,15.01
2018-04-21T06:14:04.543Z,14.97
2018-04-21T06:15:04.480Z,15.17
2018-04-21T06:16:04.419Z,15.08
2018-04-21T06:17:04.356Z,15.17
2018-04-21T06:18:04.296Z,15.22
2018-04-21T06:19:04.234Z,15.22
2018-04-21T06:20:04.174Z,15.33
2018-04-21T06:21:04.112Z,15.33
2018-04-21T06:22:04.050Z,15.48
2018-04-21T06:23:03.989Z,15.47
2018-04-21T06:24:03.929Z,15.47
2018-04-21T06:25:03.873Z,15.58
2018-04-21T06:26:03.806Z,15.62
2018-04-21T06:27:03.746Z,15.72
2018-04-21T06:28:03.684Z,15.73
2018-04-21T06:29:03.623Z,15.85
2018-04-21T06:30:03.563Z,15.84
2018-04-21T06:31:03.502Z,16.02
2018-04-21T06:32:03.441Z,16.06
2018-04-21T06:33:03.382Z,16.06
2018-04-21T06:34:03.320Z,16.17
2018-04-21T06:35:03.260Z,16.28
2018-04-21T06:36:03.198Z,16.32
2018-04-21T06:37:03.137Z,16.37
2018-04-21T06:38:03.077Z,16.42
2018-04-21T06:39:03.021Z,16.46
2018-04-21T06:40:02.956Z,16.54
2018-04-21T06:41:02.892Z,16.58
2018-04-21T06:42:02.833Z,16.59
2018-04-21T06:43:02.771Z,16.73
2018-04-21T06:44:02.711Z,16.74
2018-04-21T06:45:02.653Z,16.65
2018-04-21T06:46:02.642Z,16.82
2018-04-21T06:47:02.529Z,16.84
2018-04-21T06:48:02.471Z,16.88
2018-04-21T06:49:02.412Z,16.98
2018-04-21T06:50:02.348Z,16.95
2018-04-21T06:51:02.287Z,17.09
2018-04-21T06:52:02.229Z,17.07
2018-04-21T06:53:02.216Z,17.14
2018-04-21T06:54:02.107Z,17.22
2018-04-21T06:55:02.051Z,17.24
2018-04-21T06:56:01.991Z,17.25
2018-04-21T06:57:01.927Z,17.37
2018-04-21T06:58:01.869Z,17.43
2018-04-21T06:59:01.806Z,17.45
2018-04-21T07:00:01.749Z,17.45
2018-04-21T07:01:01.685Z,17.47
2018-04-21T07:02:01.628Z,17.49
2018-04-21T07:03:01.569Z,17.46
2018-04-21T07:04:01.507Z,17.50
2018-04-21T07:05:01.446Z,17.52
2018-04-21T07:06:01.436Z,17.59
2018-04-21T07:07:01.327Z,17.62
2018-04-21T07:08:01.269Z,17.63
2018-04-21T07:09:01.208Z,17.75
2018-04-21T07:10:01.148Z,17.81
2018-04-21T07:11:01.089Z,17.79
2018-04-21T07:12:01.029Z,17.86
2018-04-21T07:13:00.972Z,17.93
2018-04-21T07:14:00.911Z,17.97
2018-04-21T07:15:00.849Z,18.01
2018-04-21T07:16:00.790Z,17.99
2018-04-21T07:17:00.729Z,18.06
2018-04-21T07:18:00.671Z,18.11
2018-04-21T07:19:00.610Z,18.11
2018-04-21T07:20:00.552Z,18.12
2018-04-21T07:21:00.493Z,18.21
2018-04-21T07:22:00.431Z,18.26
2018-04-21T07:23:00.372Z,18.21
2018-04-21T07:24:00.313Z,18.36
2018-04-21T07:25:00.252Z,18.33
2018-04-21T07:26:00.194Z,18.45
2018-04-21T07:27:00.135Z,18.45
2018-04-21T07:28:00.081Z,18.49
2018-04-21T07:29:00.016Z,18.45
2018-04-21T07:29:59.957Z,18.54
2018-04-21T07:30:59.897Z,18.58
2018-04-21T07:31:59.838Z,18.58
2018-04-21T07:32:59.779Z,18.63
2018-04-21T07:33:59.722Z,18.67
2018-04-21T07:34:59.662Z,18.83
2018-04-21T07:35:59.658Z,18.79
2018-04-21T07:36:59.542Z,18.78
2018-04-21T07:37:59.486Z,18.85
2018-04-21T07:38:59.426Z,18.93
2018-04-21T07:39:59.367Z,18.91
2018-04-21T07:40:59.307Z,19.05
2018-04-21T07:41:59.251Z,19.01
2018-04-21T07:42:59.189Z,19.09
2018-04-21T07:43:59.131Z,19.01
2018-04-21T07:44:59.075Z,19.15
2018-04-21T07:45:59.043Z,19.24
2018-04-21T07:46:58.953Z,19.24
2018-04-21T07:47:58.896Z,19.30
2018-04-21T07:48:58.837Z,19.32
2018-04-21T07:49:58.779Z,19.44
2018-04-21T07:50:58.727Z,19.41
2018-04-21T07:51:58.665Z,19.50
2018-04-21T07:52:58.607Z,19.45
2018-04-21T07:53:58.546Z,19.59
2018-04-21T07:54:58.629Z,19.54
2018-04-21T07:55:58.428Z,19.54
2018-04-21T07:56:58.368Z,19.63
2018-04-21T07:57:58.317Z,19.70
2018-04-21T07:58:58.255Z,19.72
2018-04-21T07:59:58.198Z,19.72
2018-04-21T08:00:58.138Z,19.75
2018-04-21T08:01:58.133Z,19.72
2018-04-21T08:02:58.020Z,19.89
2018-04-21T08:03:57.965Z,19.84
2018-04-21T08:04:57.904Z,20.02
2018-04-21T08:05:57.851Z,20.11
2018-04-21T08:06:57.789Z,20.09
2018-04-21T08:07:57.729Z,20.12
2018-04-21T08:08:57.672Z,20.09
2018-04-21T08:09:57.614Z,20.25
2018-04-21T08:10:57.555Z,20.30
2018-04-21T08:11:57.498Z,20.27
2018-04-21T08:12:57.447Z,20.34
2018-04-21T08:13:57.381Z,20.39
2018-04-21T08:14:57.324Z,20.37
2018-04-21T08:15:57.268Z,20.39
2018-04-21T08:16:57.216Z,20.46
2018-04-21T08:17:57.204Z,20.39
2018-04-21T08:18:57.095Z,20.50
2018-04-21T08:19:57.035Z,20.53
2018-04-21T08:20:56.976Z,20.60
2018-04-21T08:21:56.920Z,20.58
2018-04-21T08:22:56.867Z,20.67
2018-04-21T08:23:56.803Z,20.74
2018-04-21T08:24:56.745Z,20.73
2018-04-21T08:25:56.686Z,20.86
2018-04-21T08:26:56.634Z,20.85
2018-04-21T08:27:56.571Z,20.92
2018-04-21T08:28:56.514Z,21.03
2018-04-21T08:29:56.464Z,21.07
2018-04-21T08:30:56.400Z,21.10
2018-04-21T08:31:56.344Z,21.16
2018-04-21T08:32:56.284Z,21.30
2018-04-21T08:33:56.228Z,21.30
2018-04-21T08:34:56.171Z,21.41
2018-04-21T08:35:56.114Z,21.55
2018-04-21T08:36:56.055Z,21.51
2018-04-21T08:37:56.011Z,21.62
2018-04-21T08:38:55.942Z,21.65
2018-04-21T08:39:55.885Z,21.69
2018-04-21T08:40:55.826Z,21.58
2018-04-21T08:41:55.769Z,21.53
2018-04-21T08:42:55.713Z,21.47
2018-04-21T08:43:55.657Z,21.41
2018-04-21T08:44:55.598Z,21.41
2018-04-21T08:45:55.544Z,21.47
2018-04-21T08:46:55.488Z,21.47
2018-04-21T08:47:55.427Z,21.44
2018-04-21T08:48:55.370Z,21.51
2018-04-21T08:49:55.314Z,21.59
2018-04-21T08:50:55.255Z,21.59
2018-04-21T08:51:55.198Z,21.53
2018-04-21T08:52:55.148Z,21.43
2018-04-21T08:53:55.090Z,21.43
2018-04-21T08:54:55.031Z,21.40
2018-04-21T08:55:54.973Z,21.56
2018-04-21T08:56:54.915Z,21.59
2018-04-21T08:57:54.859Z,21.69
2018-04-21T08:58:54.803Z,21.84
2018-04-21T08:59:54.747Z,21.94
2018-04-21T09:00:54.690Z,22.11
2018-04-21T09:01:54.634Z,22.18
2018-04-21T09:02:54.576Z,22.15
2018-04-21T09:03:54.523Z,22.16
2018-04-21T09:04:54.461Z,22.13
2018-04-21T09:05:54.406Z,22.23
2018-04-21T09:06:54.347Z,22.31
2018-04-21T09:07:54.303Z,22.30
2018-04-21T09:08:54.236Z,22.31
2018-04-21T09:09:54.180Z,22.37
2018-04-21T09:10:54.169Z,22.36
2018-04-21T09:11:54.067Z,22.36
2018-04-21T09:12:54.011Z,22.38
2018-04-21T09:13:53.956Z,22.38
2018-04-21T09:14:53.897Z,22.40
2018-04-21T09:15:53.841Z,22.51
2018-04-21T09:16:53.784Z,22.51
2018-04-21T09:17:53.729Z,22.52
2018-04-21T09:18:53.671Z,22.66
2018-04-21T09:19:53.618Z,22.78
2018-04-21T09:20:53.558Z,22.89
2018-04-21T09:21:53.505Z,22.89
2018-04-21T09:22:53.448Z,22.98
2018-04-21T09:23:53.396Z,23.04
2018-04-21T09:24:53.334Z,23.13
2018-04-21T09:25:53.279Z,23.18
2018-04-21T09:26:53.222Z,23.21
2018-04-21T09:27:53.169Z,23.37
2018-04-21T09:28:53.108Z,23.54
2018-04-21T09:29:53.053Z,23.67
2018-04-21T09:30:52.999Z,23.79
2018-04-21T09:31:52.942Z,23.85
2018-04-21T09:32:52.884Z,23.82
2018-04-21T09:33:52.829Z,23.81
2018-04-21T09:34:52.775Z,23.60
2018-04-21T09:35:52.718Z,23.59
2018-04-21T09:36:52.662Z,23.66
2018-04-21T09:37:52.607Z,23.64
2018-04-21T09:38:52.552Z,23.81
2018-04-21T09:39:52.496Z,23.88
2018-04-21T09:40:52.442Z,24.06
2018-04-21T09:41:52.383Z,24.15
2018-04-21T09:42:52.330Z,24.18
2018-04-21T09:43:52.272Z,24.31
2018-04-21T09:44:52.219Z,24.43
2018-04-21T09:45:52.162Z,24.55
2018-04-21T09:46:52.105Z,24.52
2018-04-21T09:47:52.051Z,24.51
2018-04-21T09:48:51.995Z,24.71
2018-04-21T09:49:51.940Z,24.79
2018-04-21T09:50:51.886Z,24.66
2018-04-21T09:51:51.843Z,24.65
2018-04-21T09:52:51.776Z,24.76
2018-04-21T09:53:51.720Z,24.62
2018-04-21T09:54:51.665Z,24.74
2018-04-21T09:55:51.610Z,24.76
2018-04-21T09:56:51.554Z,24.89
2018-04-21T09:57:51.499Z,24.91
2018-04-21T09:58:51.445Z,25.11
2018-04-21T09:59:51.389Z,25.16
2018-04-21T10:00:51.333Z,25.26
2018-04-21T10:01:51.281Z,25.38
2018-04-21T10:02:51.228Z,25.46
2018-04-21T10:03:51.172Z,25.64
2018-04-21T10:04:51.116Z,25.75
2018-04-21T10:05:51.063Z,25.61
2018-04-21T10:06:51.005Z,25.52
2018-04-21T10:07:50.953Z,25.46
2018-04-21T10:08:50.898Z,25.52
2018-04-21T10:09:50.844Z,25.46
2018-04-21T10:10:50.792Z,25.63
2018-04-21T10:11:50.734Z,25.64
2018-04-21T10:12:50.680Z,25.70
2018-04-21T10:13:50.627Z,25.81
2018-04-21T10:14:50.572Z,26.01
2018-04-21T10:15:50.518Z,26.23
2018-04-21T10:16:50.464Z,26.23
2018-04-21T10:17:50.411Z,26.19
2018-04-21T10:18:50.359Z,26.15
2018-04-21T10:19:50.300Z,26.31
2018-04-21T10:20:50.249Z,26.42
2018-04-21T10:21:50.195Z,26.53
2018-04-21T10:22:50.139Z,26.65
2018-04-21T10:23:50.083Z,26.60
2018-04-21T10:24:50.078Z,26.57
2018-04-21T10:25:49.976Z,26.63
2018-04-21T10:26:49.922Z,26.39
2018-04-21T10:27:49.868Z,26.41
2018-04-21T10:28:49.813Z,26.53
2018-04-21T10:29:49.758Z,26.71
2018-04-21T10:30:49.705Z,26.79
2018-04-21T10:31:49.652Z,26.56
2018-04-21T10:32:49.597Z,26.53
2018-04-21T10:33:49.546Z,26.49
2018-04-21T10:34:49.490Z,26.33
2018-04-21T10:35:49.437Z,26.30
2018-04-21T10:36:49.381Z,26.34
2018-04-21T10:37:49.335Z,26.23
2018-04-21T10:38:49.290Z,26.10
2018-04-21T10:39:49.222Z,26.05
2018-04-21T10:40:49.168Z,26.15
2018-04-21T10:41:49.119Z,26.20
2018-04-21T10:42:49.062Z,26.41
2018-04-21T10:43:49.009Z,26.38
2018-04-21T10:44:48.951Z,26.49
2018-04-21T10:45:48.946Z,26.57
2018-04-21T10:46:48.855Z,26.78
2018-04-21T10:47:48.793Z,26.80
2018-04-21T10:48:48.738Z,27.05
2018-04-21T10:49:48.684Z,27.17
2018-04-21T10:50:48.632Z,27.34
2018-04-21T10:51:48.585Z,27.52
2018-04-21T10:52:48.523Z,27.38
2018-04-21T10:53:48.470Z,27.20
2018-04-21T10:54:48.426Z,27.26
2018-04-21T10:55:48.364Z,27.23
2018-04-21T10:56:48.310Z,27.27
2018-04-21T10:57:48.265Z,27.40
2018-04-21T10:58:48.204Z,27.54
2018-04-21T10:59:48.149Z,27.57
2018-04-21T11:00:48.095Z,27.47
2018-04-21T11:01:48.041Z,27.35
2018-04-21T11:02:47.992Z,27.38
2018-04-21T11:03:47.938Z,27.12
2018-04-21T11:04:47.881Z,26.93
2018-04-21T11:05:47.830Z,26.86
2018-04-21T11:06:47.776Z,26.79
2018-04-21T11:07:47.720Z,26.83
2018-04-21T11:08:47.669Z,26.93
2018-04-21T11:09:47.615Z,27.05
2018-04-21T11:10:47.563Z,26.98
2018-04-21T11:11:47.509Z,27.00
2018-04-21T11:12:47.455Z,26.85
2018-04-21T11:13:47.456Z,26.75
2018-04-21T11:14:47.352Z,26.75
2018-04-21T11:15:47.294Z,26.73
2018-04-21T11:16:47.243Z,26.78
2018-04-21T11:17:47.190Z,26.73
2018-04-21T11:18:47.136Z,26.79
2018-04-21T11:19:47.083Z,26.82
2018-04-21T11:20:47.026Z,26.80
2018-04-21T11:21:46.975Z,26.80
2018-04-21T11:22:46.976Z,26.80
2018-04-21T11:23:46.867Z,26.82
2018-04-21T11:24:46.813Z,26.78
2018-04-21T11:25:46.759Z,26.78
2018-04-21T11:26:46.707Z,26.79
2018-04-21T11:27:46.658Z,26.78
2018-04-21T11:28:46.599Z,26.71
2018-04-21T11:29:46.547Z,26.73
2018-04-21T11:30:46.493Z,26.57
2018-04-21T11:31:46.440Z,26.46
2018-04-21T11:32:46.385Z,26.33
2018-04-21T11:33:46.331Z,26.41
2018-04-21T11:34:46.279Z,26.21
2018-04-21T11:35:46.225Z,26.12
2018-04-21T11:36:46.170Z,26.27
2018-04-21T11:37:46.118Z,26.28
2018-04-21T11:38:46.063Z,26.28
2018-04-21T11:39:46.010Z,26.33
2018-04-21T11:40:45.955Z,26.31
2018-04-21T11:41:45.907Z,26.48
2018-04-21T11:42:45.848Z,26.49
2018-04-21T11:43:45.793Z,26.45
2018-04-21T11:44:45.739Z,26.45
2018-04-21T11:45:45.687Z,26.51
2018-04-21T11:46:45.635Z,26.39
2018-04-21T11:47:45.580Z,26.23
2018-04-21T11:48:45.525Z,26.10
2018-04-21T11:49:45.471Z,25.93
2018-04-21T11:50:45.436Z,26.08
2018-04-21T11:51:45.367Z,26.19
2018-04-21T11:52:45.311Z,26.38
2018-04-21T11:53:45.257Z,26.43
2018-04-21T11:54:45.203Z,26.51
2018-04-21T11:55:45.149Z,26.60
2018-04-21T11:56:45.093Z,26.61
2018-04-21T11:57:45.040Z,26.67
2018-04-21T11:58:44.988Z,26.71
2018-04-21T11:59:44.936Z,26.70
2018-04-21T12:00:44.886Z,26.80
2018-04-21T12:01:44.825Z,26.75
2018-04-21T12:02:44.772Z,26.71
2018-04-21T12:03:44.717Z,26.57
2018-04-21T12:04:44.661Z,26.58
2018-04-21T12:05:44.610Z,26.46
2018-04-21T12:06:44.556Z,26.45
2018-04-21T12:07:44.510Z,26.45
2018-04-21T12:08:44.445Z,26.48
2018-04-21T12:09:44.392Z,26.34
2018-04-21T12:10:44.338Z,26.38
2018-04-21T12:11:44.287Z,26.30
2018-04-21T12:12:44.241Z,26.23
2018-04-21T12:13:44.176Z,26.23
2018-04-21T12:14:44.124Z,26.23
2018-04-21T12:15:44.073Z,26.19
2018-04-21T12:16:44.015Z,26.21
2018-04-21T12:17:43.961Z,26.20
2018-04-21T12:18:43.910Z,26.26
2018-04-21T12:19:43.854Z,26.38
2018-04-21T12:20:43.799Z,26.33
2018-04-21T12:21:43.746Z,26.39
2018-04-21T12:22:43.692Z,26.42
2018-04-21T12:23:43.639Z,26.48
2018-04-21T12:24:43.585Z,26.53
2018-04-21T12:25:43.528Z,26.52
2018-04-21T12:26:43.475Z,26.52
2018-04-21T12:27:43.420Z,26.48
2018-04-21T12:28:43.365Z,26.48
2018-04-21T12:29:43.313Z,26.51
2018-04-21T12:30:43.258Z,26.51
2018-04-21T12:31:43.204Z,26.58
2018-04-21T12:32:43.148Z,26.60
2018-04-21T12:33:43.094Z,26.60
2018-04-21T12:34:43.042Z,26.60
2018-04-21T12:35:42.987Z,26.53
2018-04-21T12:36:42.933Z,26.53
2018-04-21T12:37:42.880Z,26.53
2018-04-21T12:38:42.825Z,26.49
2018-04-21T12:39:42.773Z,26.52
2018-04-21T12:40:42.718Z,26.53
2018-04-21T12:41:42.661Z,26.53
2018-04-21T12:42:42.608Z,26.52
2018-04-21T12:43:42.555Z,26.58
2018-04-21T12:44:42.500Z,26.63
2018-04-21T12:45:42.450Z,26.65
2018-04-21T12:46:42.392Z,26.78
2018-04-21T12:47:42.340Z,26.78
2018-04-21T12:48:42.282Z,26.80
2018-04-21T12:49:42.231Z,26.90
2018-04-21T12:50:42.177Z,26.93
2018-04-21T12:51:42.120Z,26.97